createdAt,value
2023-01-11T00:01:36.023Z,95208.59
2023-01-11T00:04:02.267Z,95209.53
2023-01-11T00:06:28.545Z,95209.13
2023-01-11T00:08:54.837Z,95202.66
2023-01-11T00:11:21.082Z,95205.13
2023-01-11T00:13:47.353Z,95203.09
2023-01-11T00:16:13.666Z,95205.56
2023-01-11T00:18:39.957Z,95198.53
2023-01-11T00:21:06.233Z,95198.13
2023-01-11T00:23:32.483Z,95201.13
2023-01-11T00:25:58.745Z,95201.84
2023-01-11T00:28:24.986Z,95205.28
2023-01-11T00:30:51.258Z,95204.97
2023-01-11T00:33:17.528Z,95206.09
2023-01-11T00:35:43.780Z,95202.72
2023-01-11T00:38:10.044Z,95198.81
2023-01-11T00:40:36.306Z,95202.25
2023-01-11T00:43:02.542Z,95197.94
2023-01-11T00:45:28.801Z,95198.66
2023-01-11T00:47:55.070Z,95187.22
2023-01-11T00:50:21.334Z,95186.69
2023-01-11T00:52:47.596Z,95180.88
2023-01-11T00:55:13.853Z,95173.13
2023-01-11T00:57:40.132Z,95175.91
2023-01-11T01:00:06.417Z,95178.50
2023-01-11T01:02:32.694Z,95182.88
2023-01-11T01:04:58.976Z,95175.22
2023-01-11T01:07:25.232Z,95171.78
2023-01-11T01:09:51.498Z,95165.59
2023-01-11T01:12:17.784Z,95170.00
2023-01-11T01:14:44.049Z,95161.28
2023-01-11T01:17:10.287Z,95155.94
2023-01-11T01:19:36.587Z,95149.88
2023-01-11T01:22:02.842Z,95137.63
2023-01-11T01:24:29.100Z,95146.03
2023-01-11T01:26:55.338Z,95145.28
2023-01-11T01:29:21.596Z,95138.56
2023-01-11T01:31:47.848Z,95141.31
2023-01-11T01:34:14.099Z,95151.50
2023-01-11T01:36:40.347Z,95154.41
2023-01-11T01:39:06.598Z,95146.84
2023-01-11T01:41:32.867Z,95149.19
2023-01-11T01:43:59.116Z,95139.69
2023-01-11T01:46:25.493Z,95144.50
2023-01-11T01:48:51.787Z,95137.94
2023-01-11T01:51:18.040Z,95140.59
2023-01-11T01:53:44.287Z,95143.31
2023-01-11T01:56:10.527Z,95141.78
2023-01-11T01:58:36.760Z,95150.19
2023-01-11T02:01:03.006Z,95148.09
2023-01-11T02:03:29.293Z,95145.34
2023-01-11T02:05:55.560Z,95152.66
2023-01-11T02:08:21.853Z,95167.00
2023-01-11T02:10:48.119Z,95154.38
2023-01-11T02:13:14.420Z,95156.41
2023-01-11T02:15:40.733Z,95153.13
2023-01-11T02:18:07.017Z,95148.84
2023-01-11T02:20:33.265Z,95138.25
2023-01-11T02:22:59.497Z,95132.75
2023-01-11T02:25:25.736Z,95128.59
2023-01-11T02:27:52.004Z,95133.56
2023-01-11T02:30:18.259Z,95126.97
2023-01-11T02:32:44.523Z,95131.78
2023-01-11T02:35:10.797Z,95131.19
2023-01-11T02:37:37.056Z,95133.84
2023-01-11T02:40:03.307Z,95126.41
2023-01-11T02:42:29.550Z,95129.28
2023-01-11T02:44:55.812Z,95131.94
2023-01-11T02:47:22.065Z,95121.22
2023-01-11T02:49:48.325Z,95121.53
2023-01-11T02:52:14.585Z,95108.63
2023-01-11T02:54:40.849Z,95105.19
2023-01-11T02:57:07.125Z,95098.03
2023-01-11T02:59:33.378Z,95096.28
2023-01-11T03:01:59.727Z,95099.50
2023-01-11T03:04:26.059Z,95086.44
2023-01-11T03:06:52.393Z,95094.81
2023-01-11T03:09:18.696Z,95087.69
2023-01-11T03:11:44.945Z,95088.09
2023-01-11T03:14:11.215Z,95087.53
2023-01-11T03:16:37.492Z,95093.47
2023-01-11T03:19:03.745Z,95078.88
2023-01-11T03:21:30.013Z,95086.03
2023-01-11T03:23:56.341Z,95089.72
2023-01-11T03:26:22.578Z,95076.53
2023-01-11T03:28:48.816Z,95084.03
2023-01-11T03:31:15.091Z,95075.66
2023-01-11T03:33:41.347Z,95083.50
2023-01-11T03:36:07.576Z,95088.31
2023-01-11T03:38:33.812Z,95088.22
2023-01-11T03:41:00.086Z,95082.16
2023-01-11T03:43:26.330Z,95073.63
2023-01-11T03:45:52.571Z,95069.81
2023-01-11T03:48:18.814Z,95051.91
2023-01-11T03:50:45.084Z,95061.78
2023-01-11T03:53:11.343Z,95068.28
2023-01-11T03:55:37.612Z,95064.44
2023-01-11T03:58:03.851Z,95070.44
2023-01-11T04:00:30.152Z,95058.53
2023-01-11T04:02:56.422Z,95054.41
2023-01-11T04:05:22.656Z,95055.38
2023-01-11T04:07:48.918Z,95058.28
2023-01-11T04:10:15.203Z,95047.09
2023-01-11T04:12:41.457Z,95051.50
2023-01-11T04:15:07.711Z,95047.69
2023-01-11T04:17:33.965Z,95054.44
2023-01-11T04:20:00.227Z,95051.13
2023-01-11T04:22:26.487Z,95058.16
2023-01-11T04:24:52.736Z,95048.13
2023-01-11T04:27:18.985Z,95038.22
2023-01-11T04:29:45.248Z,95037.41
2023-01-11T04:32:11.618Z,95029.84
2023-01-11T04:34:37.868Z,95029.69
2023-01-11T04:37:04.104Z,95027.19
2023-01-11T04:39:30.379Z,95034.31
2023-01-11T04:41:56.637Z,95032.41
2023-01-11T04:44:22.892Z,95035.13
2023-01-11T04:46:49.151Z,95033.25
2023-01-11T04:49:15.407Z,95036.00
2023-01-11T04:51:41.652Z,95035.59
2023-01-11T04:54:07.911Z,95038.22
2023-01-11T04:56:34.170Z,95037.22
2023-01-11T04:59:00.430Z,95036.41
2023-01-11T05:01:26.720Z,95041.44
2023-01-11T05:03:53.028Z,95045.84
2023-01-11T05:06:19.298Z,95035.00
2023-01-11T05:08:45.549Z,95037.97
2023-01-11T05:11:11.802Z,95032.38
2023-01-11T05:13:38.066Z,95053.16
2023-01-11T05:16:04.360Z,95051.94
2023-01-11T05:18:30.630Z,95043.44
2023-01-11T05:20:56.897Z,95038.22
2023-01-11T05:23:23.185Z,95054.25
2023-01-11T05:25:49.448Z,95047.09
2023-01-11T05:28:15.712Z,95044.22
2023-01-11T05:30:41.976Z,95034.31
2023-01-11T05:33:08.244Z,95030.47
2023-01-11T05:35:34.481Z,95023.97
2023-01-11T05:38:00.735Z,95029.63
2023-01-11T05:40:26.987Z,95029.88
2023-01-11T05:42:53.229Z,95029.28
2023-01-11T05:45:19.466Z,95025.13
2023-01-11T05:47:45.724Z,95028.59
2023-01-11T05:50:11.983Z,95021.69
2023-01-11T05:52:38.241Z,95010.53
2023-01-11T05:55:04.513Z,95000.16
2023-01-11T05:57:30.764Z,94993.81
2023-01-11T05:59:57.022Z,95009.34
2023-01-11T06:02:23.391Z,95012.06
2023-01-11T06:04:50.010Z,95007.53
2023-01-11T06:07:16.260Z,95011.66
2023-01-11T06:09:42.523Z,95018.25
2023-01-11T06:12:08.777Z,95006.28
2023-01-11T06:14:37.120Z,95009.28
2023-01-11T06:17:04.357Z,95011.66
2023-01-11T06:19:30.597Z,95011.91
2023-01-11T06:21:56.895Z,95012.31
2023-01-11T06:24:23.157Z,95012.97
2023-01-11T06:26:49.428Z,95017.28
2023-01-11T06:29:15.681Z,95013.19
2023-01-11T06:31:41.916Z,95014.44
2023-01-11T06:34:08.169Z,95009.59
2023-01-11T06:36:36.567Z,95007.75
2023-01-11T06:39:02.828Z,95009.84
2023-01-11T06:41:29.070Z,95013.84
2023-01-11T06:43:55.326Z,95011.94
2023-01-11T06:46:21.641Z,95017.91
2023-01-11T06:48:47.965Z,95018.78
2023-01-11T06:51:14.234Z,95018.56
2023-01-11T06:53:40.479Z,95011.69
2023-01-11T06:56:06.748Z,95008.69
2023-01-11T06:58:33.017Z,95007.03
2023-01-11T07:00:59.369Z,94998.09
2023-01-11T07:03:25.697Z,95000.41
2023-01-11T07:05:51.937Z,95001.28
2023-01-11T07:08:18.180Z,94996.50
2023-01-11T07:10:44.418Z,94990.38
2023-01-11T07:13:10.657Z,94991.13
2023-01-11T07:15:36.976Z,95000.47
2023-01-11T07:18:03.252Z,94999.22
2023-01-11T07:20:29.521Z,95000.13
2023-01-11T07:22:55.790Z,94996.88
2023-01-11T07:25:22.043Z,94997.16
2023-01-11T07:27:48.308Z,94994.22
2023-01-11T07:30:14.559Z,95003.63
2023-01-11T07:32:40.808Z,95000.59
2023-01-11T07:35:07.076Z,94998.28
2023-01-11T07:37:33.318Z,94989.00
2023-01-11T07:39:59.563Z,94985.69
2023-01-11T07:42:25.823Z,94979.34
2023-01-11T07:44:52.088Z,94987.00
2023-01-11T07:47:18.345Z,94982.81
2023-01-11T07:49:44.602Z,94985.44
2023-01-11T07:52:10.845Z,94982.16
2023-01-11T07:54:37.093Z,94986.31
2023-01-11T07:57:03.337Z,94993.19
2023-01-11T07:59:29.583Z,94996.22
2023-01-11T08:01:55.832Z,95006.00
2023-01-11T08:04:22.077Z,95005.03
2023-01-11T08:06:48.466Z,94997.19
2023-01-11T08:09:14.746Z,94993.44
2023-01-11T08:11:40.986Z,95005.59
2023-01-11T08:14:07.243Z,94998.66
2023-01-11T08:16:33.499Z,95007.47
2023-01-11T08:18:59.855Z,95012.69
2023-01-11T08:21:26.128Z,95007.97
2023-01-11T08:23:52.384Z,95008.06
2023-01-11T08:26:18.639Z,95007.47
2023-01-11T08:28:44.915Z,95012.75
2023-01-11T08:31:11.206Z,95010.72
2023-01-11T08:33:37.500Z,95011.47
2023-01-11T08:36:03.764Z,95008.78
2023-01-11T08:38:30.034Z,95008.13
2023-01-11T08:40:56.275Z,95017.31
2023-01-11T08:43:22.527Z,95019.09
2023-01-11T08:45:48.774Z,95021.03
2023-01-11T08:48:15.040Z,95013.44
2023-01-11T08:50:41.281Z,95011.91
2023-01-11T08:53:07.552Z,95003.63
2023-01-11T08:55:33.810Z,95016.47
2023-01-11T08:58:00.054Z,95014.09
2023-01-11T09:00:26.326Z,95021.56
2023-01-11T09:02:52.623Z,95030.41
2023-01-11T09:05:18.907Z,95030.94
2023-01-11T09:07:45.157Z,95028.84
2023-01-11T09:10:11.429Z,95033.84
2023-01-11T09:12:37.666Z,95020.25
2023-01-11T09:15:03.904Z,95022.84
2023-01-11T09:17:30.322Z,95017.88
2023-01-11T09:19:56.600Z,95019.75
2023-01-11T09:22:22.848Z,95031.03
2023-01-11T09:24:49.123Z,95025.19
2023-01-11T09:27:15.431Z,95024.34
2023-01-11T09:29:41.711Z,95024.66
2023-01-11T09:32:07.947Z,95024.59
2023-01-11T09:34:34.191Z,95023.34
2023-01-11T09:37:00.435Z,95026.63
2023-01-11T09:39:26.700Z,95033.25
2023-01-11T09:41:52.937Z,95028.19
2023-01-11T09:44:19.190Z,95028.56
2023-01-11T09:46:45.439Z,95024.16
2023-01-11T09:49:11.711Z,95023.19
2023-01-11T09:51:37.969Z,95024.81
2023-01-11T09:54:04.221Z,95031.38
2023-01-11T09:56:30.572Z,95030.34
2023-01-11T09:58:56.817Z,95039.69
2023-01-11T10:01:23.084Z,95047.78
2023-01-11T10:03:49.358Z,95031.94
2023-01-11T10:06:15.619Z,95036.34
2023-01-11T10:18:25.525Z,95019.03
2023-01-11T10:18:27.914Z,95023.34
2023-01-11T10:19:46.858Z,95019.13
2023-01-11T10:22:13.223Z,95020.34
2023-01-11T10:24:39.491Z,95020.25
2023-01-11T10:27:05.794Z,95019.34
2023-01-11T10:29:32.058Z,95013.44
2023-01-11T10:31:58.291Z,95012.19
2023-01-11T10:34:24.546Z,95011.22
2023-01-11T10:36:50.812Z,95010.00
2023-01-11T10:39:17.057Z,95014.84
2023-01-11T10:41:43.379Z,95008.75
2023-01-11T10:44:09.637Z,95008.53
2023-01-11T10:46:35.906Z,95004.94
2023-01-11T10:49:02.243Z,95004.25
2023-01-11T10:51:28.537Z,95007.53
2023-01-11T10:53:54.780Z,95008.13
2023-01-11T10:56:21.038Z,95008.53
2023-01-11T10:58:47.318Z,95003.50
2023-01-11T11:01:13.611Z,95005.38
2023-01-11T11:03:39.851Z,94999.75
2023-01-11T11:06:06.125Z,95003.41
2023-01-11T11:08:32.360Z,94995.63
2023-01-11T11:10:58.669Z,94999.97
2023-01-11T11:13:24.917Z,94982.25
2023-01-11T11:15:53.577Z,94996.59
2023-01-11T11:18:19.825Z,94989.72
2023-01-11T11:20:46.091Z,94996.16
2023-01-11T11:23:12.349Z,95005.06
2023-01-11T11:25:38.635Z,95001.25
2023-01-11T11:28:04.894Z,95004.75
2023-01-11T11:30:31.129Z,95004.84
2023-01-11T11:32:57.458Z,94997.56
2023-01-11T11:35:23.701Z,95005.06
2023-01-11T11:37:49.950Z,95004.34
2023-01-11T11:40:16.199Z,94999.38
2023-01-11T11:42:42.472Z,94997.56
2023-01-11T11:45:08.727Z,94992.97
2023-01-11T11:47:35.263Z,94982.13
2023-01-11T11:50:01.516Z,94998.34
2023-01-11T11:52:27.777Z,94988.41
2023-01-11T11:54:54.036Z,94984.41
2023-01-11T11:57:20.277Z,94985.56
2023-01-11T11:59:46.521Z,94983.00
2023-01-11T12:02:12.775Z,94981.38
2023-01-11T12:04:39.054Z,94973.94
2023-01-11T12:07:05.309Z,94969.75
2023-01-11T12:09:31.587Z,94977.75
2023-01-11T12:11:57.883Z,94971.78
2023-01-11T12:14:24.149Z,94972.88
2023-01-11T12:16:50.471Z,94981.34
2023-01-11T12:19:16.764Z,94970.03
2023-01-11T12:21:43.005Z,94967.03
2023-01-11T12:24:09.262Z,94974.47
2023-01-11T12:26:35.701Z,94964.41
2023-01-11T12:29:02.241Z,94970.25
2023-01-11T12:31:28.489Z,94967.91
2023-01-11T12:33:54.754Z,94966.97
2023-01-11T12:36:21.008Z,94976.69
2023-01-11T12:38:47.253Z,94984.00
2023-01-11T12:41:13.537Z,94991.06
2023-01-11T12:43:39.802Z,94972.59
2023-01-11T12:46:06.129Z,94978.97
2023-01-11T12:48:32.445Z,94985.84
2023-01-11T12:50:58.713Z,94978.16
2023-01-11T12:53:24.981Z,94980.06
2023-01-11T12:55:51.229Z,94982.09
2023-01-11T12:58:17.481Z,94989.34
2023-01-11T13:00:43.732Z,94974.97
2023-01-11T13:03:09.994Z,94986.25
2023-01-11T13:05:36.248Z,94982.97
2023-01-11T13:08:02.509Z,94983.19
2023-01-11T13:10:28.771Z,94975.66
2023-01-11T13:12:55.011Z,94972.34
2023-01-11T13:15:21.260Z,94977.13
2023-01-11T13:17:47.496Z,94991.09
2023-01-11T13:20:13.841Z,94992.91
2023-01-11T13:22:40.097Z,94997.16
2023-01-11T13:25:06.347Z,95002.41
2023-01-11T13:27:32.605Z,94987.97
2023-01-11T13:29:59.007Z,94994.72
2023-01-11T13:32:25.266Z,94993.66
2023-01-11T13:34:51.514Z,94991.94
2023-01-11T13:37:17.759Z,95007.16
2023-01-11T13:39:44.012Z,95001.28
2023-01-11T13:42:10.291Z,95002.03
2023-01-11T13:44:37.345Z,95010.25
2023-01-11T13:47:03.694Z,95027.19
2023-01-11T13:49:29.938Z,95022.38
2023-01-11T13:51:56.192Z,95021.63
2023-01-11T13:54:22.452Z,95013.16
2023-01-11T13:56:48.698Z,95019.47
2023-01-11T13:59:14.948Z,95016.81
2023-01-11T14:01:41.268Z,95020.25
2023-01-11T14:04:07.614Z,95029.38
2023-01-11T14:06:33.876Z,95022.31
2023-01-11T14:09:00.169Z,95020.69
2023-01-11T14:11:26.517Z,95023.59
2023-01-11T14:13:52.772Z,95035.97
2023-01-11T14:16:19.052Z,95032.34
2023-01-11T14:18:45.324Z,95032.28
2023-01-11T14:21:11.610Z,95036.09
2023-01-11T14:23:37.869Z,95036.09
2023-01-11T14:26:04.103Z,95048.53
2023-01-11T14:28:30.359Z,95042.84
2023-01-11T14:30:56.678Z,95045.47
2023-01-11T14:33:22.958Z,95067.47
2023-01-11T14:35:49.243Z,95078.09
2023-01-11T14:38:15.507Z,95080.63
2023-01-11T14:40:41.749Z,95091.78
2023-01-11T14:43:08.003Z,95101.13
2023-01-11T14:45:34.261Z,95100.16
2023-01-11T14:48:00.509Z,95111.38
2023-01-11T14:50:26.777Z,95110.94
2023-01-11T14:52:53.038Z,95102.78
2023-01-11T14:55:19.305Z,95102.63
2023-01-11T14:57:45.544Z,95108.09
2023-01-11T15:00:11.803Z,95114.00
2023-01-11T15:02:38.047Z,95107.78
2023-01-11T15:05:04.291Z,95127.72
2023-01-11T15:07:30.568Z,95130.03
2023-01-11T15:09:56.813Z,95138.56
2023-01-11T15:12:23.074Z,95143.63
2023-01-11T15:14:49.327Z,95147.09
2023-01-11T15:17:15.593Z,95147.38
2023-01-11T15:19:41.826Z,95148.59
2023-01-11T15:22:08.059Z,95157.16
2023-01-11T15:24:34.401Z,95167.63
2023-01-11T15:27:00.733Z,95164.44
2023-01-11T15:29:27.048Z,95176.03
2023-01-11T15:31:53.402Z,95172.72
2023-01-11T15:34:19.739Z,95169.72
2023-01-11T15:36:46.004Z,95175.09
2023-01-11T15:39:12.286Z,95178.41
2023-01-11T15:41:38.561Z,95183.22
2023-01-11T15:44:04.820Z,95176.16
2023-01-11T15:46:31.144Z,95173.69
2023-01-11T15:48:57.448Z,95176.44
2023-01-11T15:51:23.700Z,95176.88
2023-01-11T15:53:49.965Z,95188.72
2023-01-11T15:56:16.254Z,95192.16
2023-01-11T15:58:42.510Z,95186.94
2023-01-11T16:01:08.844Z,95196.53
2023-01-11T16:03:35.148Z,95195.72
2023-01-11T16:06:01.425Z,95207.34
2023-01-11T16:08:27.707Z,95212.94
2023-01-11T16:10:53.972Z,95217.50
2023-01-11T16:13:20.253Z,95211.13
2023-01-11T16:15:48.652Z,95212.72
2023-01-11T16:18:15.662Z,95215.75
2023-01-11T16:20:41.925Z,95229.72
2023-01-11T16:23:08.163Z,95229.56
2023-01-11T16:25:34.422Z,95242.81
2023-01-11T16:28:00.823Z,95233.03
2023-01-11T16:30:27.110Z,95238.81
2023-01-11T16:32:53.360Z,95251.34
2023-01-11T16:35:19.619Z,95258.22
2023-01-11T16:37:45.864Z,95245.97
2023-01-11T16:40:12.101Z,95255.94
2023-01-11T16:42:38.357Z,95260.06
2023-01-11T16:45:04.618Z,95263.34
2023-01-11T16:47:30.853Z,95250.56
2023-01-11T16:49:57.123Z,95259.91
2023-01-11T16:52:23.372Z,95261.97
2023-01-11T16:54:49.625Z,95263.91
2023-01-11T16:57:16.533Z,95276.03
2023-01-11T16:59:42.803Z,95275.91
2023-01-11T17:02:09.109Z,95278.94
2023-01-11T17:04:35.393Z,95283.22
2023-01-11T17:07:01.657Z,95286.41
2023-01-11T17:09:27.906Z,95285.66
2023-01-11T17:11:54.152Z,95283.75
2023-01-11T17:14:20.487Z,95283.88
2023-01-11T17:16:46.904Z,95285.56
2023-01-11T17:19:13.211Z,95280.44
2023-01-11T17:21:39.453Z,95268.88
2023-01-11T17:24:05.711Z,95278.38
2023-01-11T17:26:31.971Z,95278.38
2023-01-11T17:28:58.326Z,95284.47
2023-01-11T17:31:24.621Z,95292.47
2023-01-11T17:33:50.936Z,95303.19
2023-01-11T17:36:17.197Z,95318.16
2023-01-11T17:38:43.447Z,95317.59
2023-01-11T17:41:09.770Z,95314.63
2023-01-11T17:43:36.032Z,95329.66
2023-01-11T17:46:02.339Z,95321.56
2023-01-11T17:48:28.656Z,95326.53
2023-01-11T17:50:54.924Z,95329.25
2023-01-11T17:53:21.204Z,95325.81
2023-01-11T17:55:47.437Z,95320.69
2023-01-11T17:58:13.688Z,95314.94
2023-01-11T18:00:39.932Z,95310.22
2023-01-11T18:03:06.183Z,95321.97
2023-01-11T18:05:32.432Z,95323.03
2023-01-11T18:07:58.681Z,95336.41
2023-01-11T18:10:24.932Z,95341.69
2023-01-11T18:12:51.177Z,95347.75
2023-01-11T18:15:17.441Z,95350.69
2023-01-11T18:17:43.707Z,95353.66
2023-01-11T18:20:09.957Z,95355.03
2023-01-11T18:22:36.208Z,95352.81
2023-01-11T18:25:02.447Z,95355.72
2023-01-11T18:27:28.721Z,95370.75
2023-01-11T18:29:55.039Z,95378.31
2023-01-11T18:32:21.329Z,95375.88
2023-01-11T18:34:47.586Z,95382.09
2023-01-11T18:37:13.875Z,95386.34
2023-01-11T18:39:40.120Z,95391.59
2023-01-11T18:42:06.398Z,95378.19
2023-01-11T18:44:32.651Z,95376.28
2023-01-11T18:46:58.912Z,95376.56
2023-01-11T18:49:25.169Z,95373.81
2023-01-11T18:51:51.417Z,95380.03
2023-01-11T18:54:17.665Z,95393.53
2023-01-11T18:56:43.952Z,95399.28
2023-01-11T18:59:10.215Z,95412.47
2023-01-11T19:01:54.029Z,95417.66
2023-01-11T19:04:22.585Z,95411.19
2023-01-11T19:06:48.849Z,95406.25
2023-01-11T19:09:15.417Z,95414.22
2023-01-11T19:11:41.674Z,95424.56
2023-01-11T19:14:07.929Z,95420.69
2023-01-11T19:16:34.184Z,95430.34
2023-01-11T19:19:00.436Z,95418.78
2023-01-11T19:21:26.675Z,95425.53
2023-01-11T19:23:53.035Z,95428.59
2023-01-11T19:26:19.312Z,95429.25
2023-01-11T19:28:45.548Z,95426.38
2023-01-11T19:31:11.860Z,95422.50
2023-01-11T19:33:38.173Z,95412.59
2023-01-11T19:36:04.427Z,95404.91
2023-01-11T19:38:30.673Z,95401.03
2023-01-11T19:40:56.933Z,95401.72
2023-01-11T19:43:23.191Z,95390.41
2023-01-11T19:45:49.498Z,95389.44
2023-01-11T19:48:15.767Z,95394.44
2023-01-11T19:50:42.035Z,95397.31
2023-01-11T19:53:08.294Z,95403.34
2023-01-11T19:55:34.556Z,95401.44
2023-01-11T19:58:00.815Z,95413.13
2023-01-11T20:00:27.065Z,95422.09
2023-01-11T20:02:53.417Z,95420.84
2023-01-11T20:05:19.747Z,95421.28
2023-01-11T20:07:46.019Z,95414.25
2023-01-11T20:10:12.297Z,95418.38
2023-01-11T20:12:38.559Z,95419.47
2023-01-11T20:15:04.804Z,95415.91
2023-01-11T20:17:31.053Z,95427.88
2023-01-11T20:19:57.302Z,95431.59
2023-01-11T20:22:23.542Z,95438.06
2023-01-11T20:24:49.800Z,95437.38
2023-01-11T20:27:16.095Z,95438.19
2023-01-11T20:29:42.361Z,95436.16
2023-01-11T20:32:28.149Z,95441.09
2023-01-11T20:34:54.859Z,95442.34
2023-01-11T20:37:21.116Z,95441.81
2023-01-11T20:39:47.460Z,95444.41
2023-01-11T20:42:14.785Z,95446.47
2023-01-11T20:44:41.030Z,95450.91
2023-01-11T20:47:07.297Z,95444.41
2023-01-11T20:49:33.558Z,95427.06
2023-01-11T20:51:59.833Z,95428.28
2023-01-11T20:54:26.103Z,95425.53
2023-01-11T20:56:52.370Z,95436.97
2023-01-11T20:59:18.618Z,95450.34
2023-01-11T21:01:44.923Z,95450.06
2023-01-11T21:04:11.206Z,95456.66
2023-01-11T21:06:37.453Z,95458.88
2023-01-11T21:09:03.731Z,95458.03
2023-01-11T21:11:29.998Z,95457.47
2023-01-11T21:16:22.505Z,95471.28
2023-01-11T21:18:48.843Z,95466.28
2023-01-11T21:21:15.102Z,95465.75
2023-01-11T21:23:41.364Z,95467.69
2023-01-11T21:26:07.609Z,95484.50
2023-01-11T21:28:33.963Z,95491.09
2023-01-11T21:31:00.266Z,95494.22
2023-01-11T21:33:26.541Z,95491.34
2023-01-11T21:35:52.822Z,95495.41
2023-01-11T21:38:19.092Z,95488.09
2023-01-11T21:40:45.343Z,95482.66
2023-01-11T21:43:11.624Z,95473.03
2023-01-11T21:45:37.864Z,95475.50
2023-01-11T21:48:04.129Z,95486.13
2023-01-11T21:50:30.409Z,95495.13
2023-01-11T21:52:56.660Z,95503.94
2023-01-11T21:55:22.933Z,95503.38
2023-01-11T21:57:49.224Z,95500.59
2023-01-11T22:00:15.498Z,95508.66
2023-01-11T22:02:41.782Z,95506.63
2023-01-11T22:05:08.041Z,95498.66
2023-01-11T22:07:34.304Z,95498.75
2023-01-11T22:10:04.948Z,95498.94
2023-01-11T22:12:31.463Z,95498.38
2023-01-11T22:14:57.710Z,95497.25
2023-01-11T22:17:24.002Z,95490.69
2023-01-11T22:19:50.295Z,95505.78
2023-01-11T22:22:16.564Z,95508.25
2023-01-11T22:24:42.805Z,95496.56
2023-01-11T22:27:09.113Z,95492.34
2023-01-11T22:29:35.384Z,95492.88
2023-01-11T22:32:01.619Z,95491.19
2023-01-11T22:34:27.884Z,95479.66
2023-01-11T22:36:54.164Z,95482.28
2023-01-11T22:39:20.452Z,95490.25
2023-01-11T22:41:46.729Z,95491.91
2023-01-11T22:44:12.997Z,95494.94
2023-01-11T22:46:39.269Z,95506.22
2023-01-11T22:49:05.561Z,95508.41
2023-01-11T22:51:31.824Z,95513.69
2023-01-11T22:53:58.084Z,95518.56
2023-01-11T22:56:24.342Z,95525.09
2023-01-11T22:58:50.624Z,95525.31
2023-01-11T23:01:16.910Z,95527.38
2023-01-11T23:03:43.223Z,95527.38
2023-01-11T23:06:09.598Z,95531.38
2023-01-11T23:08:35.873Z,95529.47
2023-01-11T23:11:02.136Z,95531.69
2023-01-11T23:13:28.398Z,95535.13
2023-01-11T23:15:54.668Z,95545.06
2023-01-11T23:18:20.946Z,95542.56
2023-01-11T23:20:47.195Z,95539.97
2023-01-11T23:23:13.456Z,95544.38
2023-01-11T23:25:39.745Z,95534.47
2023-01-11T23:28:06.009Z,95534.00
2023-01-11T23:30:32.271Z,95523.56
2023-01-11T23:32:58.556Z,95517.94
2023-01-11T23:35:24.819Z,95513.03
2023-01-11T23:37:51.086Z,95496.53
2023-01-11T23:40:17.343Z,95484.41
2023-01-11T23:42:43.595Z,95484.97
2023-01-11T23:45:09.843Z,95479.50
2023-01-11T23:47:36.105Z,95482.38
2023-01-11T23:50:02.368Z,95486.53
2023-01-11T23:52:28.654Z,95477.84
2023-01-11T23:54:54.997Z,95480.88
2023-01-11T23:57:21.237Z,95478.16
2023-01-11T23:59:47.496Z,95481.44
